sensor_id;sensor_type;location;lat;lon;timestamp;temperature;humidity
1129;DHT22;553;51.038;7.216;2022-07-23T00:00:15;18.60;99.90
1129;DHT22;553;51.038;7.216;2022-07-23T00:02:42;18.60;99.90
1129;DHT22;553;51.038;7.216;2022-07-23T00:05:09;18.50;99.90
1129;DHT22;553;51.038;7.216;2022-07-23T00:07:36;18.60;99.90
1129;DHT22;553;51.038;7.216;2022-07-23T00:10:04;18.60;99.90
1129;DHT22;553;51.038;7.216;2022-07-23T00:12:31;18.60;99.90
1129;DHT22;553;51.038;7.216;2022-07-23T00:14:58;18.50;99.90
1129;DHT22;553;51.038;7.216;2022-07-23T00:17:25;18.50;99.90
1129;DHT22;553;51.038;7.216;2022-07-23T00:19:51;18.50;99.90
1129;DHT22;553;51.038;7.216;2022-07-23T00:22:20;18.60;99.90
1129;DHT22;553;51.038;7.216;2022-07-23T00:24:47;18.60;99.90
1129;DHT22;553;51.038;7.216;2022-07-23T00:27:33;18.60;99.90
1129;DHT22;553;51.038;7.216;2022-07-23T00:30:00;18.60;99.90
1129;DHT22;553;51.038;7.216;2022-07-23T00:32:27;18.60;99.90
1129;DHT22;553;51.038;7.216;2022-07-23T00:35:14;18.60;99.90
1129;DHT22;553;51.038;7.216;2022-07-23T00:37:41;18.60;99.90
1129;DHT22;553;51.038;7.216;2022-07-23T00:40:09;18.60;99.90
1129;DHT22;553;51.038;7.216;2022-07-23T00:42:36;18.60;99.90
1129;DHT22;553;51.038;7.216;2022-07-23T00:45:04;18.50;99.90
1129;DHT22;553;51.038;7.216;2022-07-23T00:47:31;18.50;99.90
1129;DHT22;553;51.038;7.216;2022-07-23T00:49:58;18.40;99.90
1129;DHT22;553;51.038;7.216;2022-07-23T00:52:24;18.10;99.90
1129;DHT22;553;51.038;7.216;2022-07-23T00:54:52;17.90;99.90
1129;DHT22;553;51.038;7.216;2022-07-23T00:57:18;17.70;99.90
1129;DHT22;553;51.038;7.216;2022-07-23T00:59:49;17.70;99.90
1129;DHT22;553;51.038;7.216;2022-07-23T01:02:17;17.60;99.90
1129;DHT22;553;51.038;7.216;2022-07-23T01:04:44;17.40;99.90
1129;DHT22;553;51.038;7.216;2022-07-23T01:07:10;17.30;99.90
1129;DHT22;553;51.038;7.216;2022-07-23T01:09:38;17.20;99.90
1129;DHT22;553;51.038;7.216;2022-07-23T01:12:05;17.30;99.90
1129;DHT22;553;51.038;7.216;2022-07-23T01:14:32;17.20;99.90
1129;DHT22;553;51.038;7.216;2022-07-23T01:16:59;17.20;99.90
1129;DHT22;553;51.038;7.216;2022-07-23T01:19:26;17.20;99.90
1129;DHT22;553;51.038;7.216;2022-07-23T01:21:53;17.20;99.90
1129;DHT22;553;51.038;7.216;2022-07-23T01:24:21;17.30;99.90
1129;DHT22;553;51.038;7.216;2022-07-23T01:26:58;17.40;99.90
1129;DHT22;553;51.038;7.216;2022-07-23T01:29:26;17.40;99.90
1129;DHT22;553;51.038;7.216;2022-07-23T01:31:54;17.50;99.90
1129;DHT22;553;51.038;7.216;2022-07-23T01:34:21;17.50;99.90
1129;DHT22;553;51.038;7.216;2022-07-23T01:36:47;17.50;99.90
1129;DHT22;553;51.038;7.216;2022-07-23T01:39:16;17.40;99.90
1129;DHT22;553;51.038;7.216;2022-07-23T01:41:43;17.40;99.90
1129;DHT22;553;51.038;7.216;2022-07-23T01:44:16;17.50;99.90
1129;DHT22;553;51.038;7.216;2022-07-23T01:46:43;17.40;99.90
1129;DHT22;553;51.038;7.216;2022-07-23T01:49:10;17.50;99.90
1129;DHT22;553;51.038;7.216;2022-07-23T01:51:55;17.50;99.90
1129;DHT22;553;51.038;7.216;2022-07-23T01:54:35;17.40;99.90
1129;DHT22;553;51.038;7.216;2022-07-23T01:57:06;17.30;99.90
1129;DHT22;553;51.038;7.216;2022-07-23T01:59:33;17.20;99.90
1129;DHT22;553;51.038;7.216;2022-07-23T02:02:01;17.10;99.90
1129;DHT22;553;51.038;7.216;2022-07-23T02:04:30;17.10;99.90
1129;DHT22;553;51.038;7.216;2022-07-23T02:06:58;17.00;99.90
1129;DHT22;553;51.038;7.216;2022-07-23T02:09:26;17.00;99.90
1129;DHT22;553;51.038;7.216;2022-07-23T02:11:53;16.90;99.90
1129;DHT22;553;51.038;7.216;2022-07-23T02:14:19;17.00;99.90
1129;DHT22;553;51.038;7.216;2022-07-23T02:16:46;17.00;99.90
1129;DHT22;553;51.038;7.216;2022-07-23T02:19:14;17.00;99.90
1129;DHT22;553;51.038;7.216;2022-07-23T02:21:41;17.00;99.90
1129;DHT22;553;51.038;7.216;2022-07-23T02:24:08;17.10;99.90
1129;DHT22;553;51.038;7.216;2022-07-23T02:26:36;17.10;99.90
1129;DHT22;553;51.038;7.216;2022-07-23T02:29:06;17.20;99.90
1129;DHT22;553;51.038;7.216;2022-07-23T02:31:33;17.20;99.90
1129;DHT22;553;51.038;7.216;2022-07-23T02:34:01;17.20;99.90
1129;DHT22;553;51.038;7.216;2022-07-23T02:36:28;17.30;99.90
1129;DHT22;553;51.038;7.216;2022-07-23T02:38:55;17.30;99.90
1129;DHT22;553;51.038;7.216;2022-07-23T02:41:23;17.30;99.90
1129;DHT22;553;51.038;7.216;2022-07-23T02:43:50;17.40;99.90
1129;DHT22;553;51.038;7.216;2022-07-23T02:46:17;17.40;99.90
1129;DHT22;553;51.038;7.216;2022-07-23T02:48:45;17.40;99.90
1129;DHT22;553;51.038;7.216;2022-07-23T02:51:13;17.40;99.90
1129;DHT22;553;51.038;7.216;2022-07-23T02:53:46;17.40;99.90
1129;DHT22;553;51.038;7.216;2022-07-23T02:56:13;17.40;99.90
1129;DHT22;553;51.038;7.216;2022-07-23T02:58:41;17.40;99.90
1129;DHT22;553;51.038;7.216;2022-07-23T03:01:08;17.40;99.90
1129;DHT22;553;51.038;7.216;2022-07-23T03:03:35;17.40;99.90
1129;DHT22;553;51.038;7.216;2022-07-23T03:06:02;17.40;99.90
1129;DHT22;553;51.038;7.216;2022-07-23T03:08:29;17.40;99.90
1129;DHT22;553;51.038;7.216;2022-07-23T03:10:56;17.30;99.90
1129;DHT22;553;51.038;7.216;2022-07-23T03:13:22;17.30;99.90
1129;DHT22;553;51.038;7.216;2022-07-23T03:15:49;17.20;99.90
1129;DHT22;553;51.038;7.216;2022-07-23T03:18:16;17.10;99.90
1129;DHT22;553;51.038;7.216;2022-07-23T03:20:43;17.10;99.90
1129;DHT22;553;51.038;7.216;2022-07-23T03:23:10;17.00;99.90
1129;DHT22;553;51.038;7.216;2022-07-23T03:25:37;17.00;99.90
1129;DHT22;553;51.038;7.216;2022-07-23T03:28:04;16.90;99.90
1129;DHT22;553;51.038;7.216;2022-07-23T03:30:31;16.90;99.90
1129;DHT22;553;51.038;7.216;2022-07-23T03:32:58;16.80;99.90
1129;DHT22;553;51.038;7.216;2022-07-23T03:35:25;16.90;99.90
1129;DHT22;553;51.038;7.216;2022-07-23T03:38:07;16.90;99.90
1129;DHT22;553;51.038;7.216;2022-07-23T03:40:34;16.90;99.90
1129;DHT22;553;51.038;7.216;2022-07-23T03:43:01;16.90;99.90
1129;DHT22;553;51.038;7.216;2022-07-23T03:45:28;16.90;99.90
1129;DHT22;553;51.038;7.216;2022-07-23T03:47:54;17.00;99.90
1129;DHT22;553;51.038;7.216;2022-07-23T03:50:21;17.00;99.90
1129;DHT22;553;51.038;7.216;2022-07-23T03:52:48;17.00;99.90
1129;DHT22;553;51.038;7.216;2022-07-23T03:55:15;17.00;99.90
1129;DHT22;553;51.038;7.216;2022-07-23T03:57:43;17.00;99.90
1129;DHT22;553;51.038;7.216;2022-07-23T04:00:11;17.00;99.90
1129;DHT22;553;51.038;7.216;2022-07-23T04:02:39;17.00;99.90
1129;DHT22;553;51.038;7.216;2022-07-23T04:05:07;17.00;99.90
1129;DHT22;553;51.038;7.216;2022-07-23T04:07:34;17.00;99.90
1129;DHT22;553;51.038;7.216;2022-07-23T04:10:01;17.00;99.90
1129;DHT22;553;51.038;7.216;2022-07-23T04:12:28;17.00;99.90
1129;DHT22;553;51.038;7.216;2022-07-23T04:14:55;16.90;99.90
1129;DHT22;553;51.038;7.216;2022-07-23T04:17:22;16.90;99.90
1129;DHT22;553;51.038;7.216;2022-07-23T04:19:48;16.90;99.90
1129;DHT22;553;51.038;7.216;2022-07-23T04:22:20;16.80;99.90
1129;DHT22;553;51.038;7.216;2022-07-23T04:24:47;16.80;99.90
1129;DHT22;553;51.038;7.216;2022-07-23T04:27:15;16.80;99.90
1129;DHT22;553;51.038;7.216;2022-07-23T04:29:41;16.80;99.90
1129;DHT22;553;51.038;7.216;2022-07-23T04:32:08;16.80;99.90
1129;DHT22;553;51.038;7.216;2022-07-23T04:34:35;16.80;99.90
1129;DHT22;553;51.038;7.216;2022-07-23T04:37:02;16.80;99.90
1129;DHT22;553;51.038;7.216;2022-07-23T04:39:31;16.80;99.90
1129;DHT22;553;51.038;7.216;2022-07-23T04:41:58;16.80;99.90
1129;DHT22;553;51.038;7.216;2022-07-23T04:44:25;16.80;99.90
1129;DHT22;553;51.038;7.216;2022-07-23T04:46:52;16.80;99.90
1129;DHT22;553;51.038;7.216;2022-07-23T04:49:20;16.80;99.90
1129;DHT22;553;51.038;7.216;2022-07-23T04:51:47;16.90;99.90
1129;DHT22;553;51.038;7.216;2022-07-23T04:54:14;17.00;99.90
1129;DHT22;553;51.038;7.216;2022-07-23T04:56:43;16.90;99.90
1129;DHT22;553;51.038;7.216;2022-07-23T04:59:09;17.00;99.90
1129;DHT22;553;51.038;7.216;2022-07-23T05:01:36;17.00;99.90
1129;DHT22;553;51.038;7.216;2022-07-23T05:04:03;17.00;99.90
1129;DHT22;553;51.038;7.216;2022-07-23T05:06:33;17.00;99.90
1129;DHT22;553;51.038;7.216;2022-07-23T05:09:00;17.00;99.90
1129;DHT22;553;51.038;7.216;2022-07-23T05:11:29;17.00;99.90
1129;DHT22;553;51.038;7.216;2022-07-23T05:13:55;17.00;99.90
1129;DHT22;553;51.038;7.216;2022-07-23T05:16:23;17.10;99.90
1129;DHT22;553;51.038;7.216;2022-07-23T05:18:51;17.10;99.90
1129;DHT22;553;51.038;7.216;2022-07-23T05:21:18;17.20;99.90
1129;DHT22;553;51.038;7.216;2022-07-23T05:23:45;17.30;99.90
1129;DHT22;553;51.038;7.216;2022-07-23T05:26:12;17.30;99.90
1129;DHT22;553;51.038;7.216;2022-07-23T05:28:38;17.20;99.90
1129;DHT22;553;51.038;7.216;2022-07-23T05:31:05;17.20;99.90
1129;DHT22;553;51.038;7.216;2022-07-23T05:33:33;17.20;99.90
1129;DHT22;553;51.038;7.216;2022-07-23T05:36:02;17.30;99.90
1129;DHT22;553;51.038;7.216;2022-07-23T05:38:31;17.40;99.90
1129;DHT22;553;51.038;7.216;2022-07-23T05:41:00;17.60;99.90
1129;DHT22;553;51.038;7.216;2022-07-23T05:43:28;17.60;99.90
1129;DHT22;553;51.038;7.216;2022-07-23T05:45:57;17.70;99.90
1129;DHT22;553;51.038;7.216;2022-07-23T05:48:24;17.90;99.90
1129;DHT22;553;51.038;7.216;2022-07-23T05:51:14;18.00;99.90
1129;DHT22;553;51.038;7.216;2022-07-23T05:53:40;18.10;99.90
1129;DHT22;553;51.038;7.216;2022-07-23T05:56:18;18.30;99.90
1129;DHT22;553;51.038;7.216;2022-07-23T05:58:45;18.40;99.90
1129;DHT22;553;51.038;7.216;2022-07-23T06:01:14;18.60;99.90
1129;DHT22;553;51.038;7.216;2022-07-23T06:03:49;18.70;99.90
1129;DHT22;553;51.038;7.216;2022-07-23T06:06:16;18.90;99.90
1129;DHT22;553;51.038;7.216;2022-07-23T06:08:43;19.20;99.90
1129;DHT22;553;51.038;7.216;2022-07-23T06:11:10;19.40;99.90
1129;DHT22;553;51.038;7.216;2022-07-23T06:13:37;19.70;99.90
1129;DHT22;553;51.038;7.216;2022-07-23T06:16:04;19.90;99.90
1129;DHT22;553;51.038;7.216;2022-07-23T06:18:31;20.10;99.90
1129;DHT22;553;51.038;7.216;2022-07-23T06:20:58;20.50;99.90
1129;DHT22;553;51.038;7.216;2022-07-23T06:23:26;20.70;99.90
1129;DHT22;553;51.038;7.216;2022-07-23T06:25:53;20.50;99.90
1129;DHT22;553;51.038;7.216;2022-07-23T06:28:20;20.80;99.20
1129;DHT22;553;51.038;7.216;2022-07-23T06:30:47;20.90;99.00
1129;DHT22;553;51.038;7.216;2022-07-23T06:33:13;21.10;98.40
1129;DHT22;553;51.038;7.216;2022-07-23T06:35:41;21.30;97.30
1129;DHT22;553;51.038;7.216;2022-07-23T06:38:07;21.40;96.60
1129;DHT22;553;51.038;7.216;2022-07-23T06:40:34;21.50;96.90
1129;DHT22;553;51.038;7.216;2022-07-23T06:43:01;21.60;95.70
1129;DHT22;553;51.038;7.216;2022-07-23T06:45:29;21.80;95.30
1129;DHT22;553;51.038;7.216;2022-07-23T06:47:56;21.80;95.20
1129;DHT22;553;51.038;7.216;2022-07-23T06:50:22;21.90;95.60
1129;DHT22;553;51.038;7.216;2022-07-23T06:52:49;21.70;94.70
1129;DHT22;553;51.038;7.216;2022-07-23T06:55:16;21.90;95.40
1129;DHT22;553;51.038;7.216;2022-07-23T06:57:44;22.10;96.10
1129;DHT22;553;51.038;7.216;2022-07-23T07:00:11;21.80;95.00
1129;DHT22;553;51.038;7.216;2022-07-23T07:02:38;21.90;95.40
1129;DHT22;553;51.038;7.216;2022-07-23T07:05:05;21.90;95.40
1129;DHT22;553;51.038;7.216;2022-07-23T07:07:33;22.20;94.00
1129;DHT22;553;51.038;7.216;2022-07-23T07:10:02;22.50;93.70
1129;DHT22;553;51.038;7.216;2022-07-23T07:12:29;22.60;92.80
1129;DHT22;553;51.038;7.216;2022-07-23T07:14:55;22.80;92.40
1129;DHT22;553;51.038;7.216;2022-07-23T07:17:23;22.90;92.40
1129;DHT22;553;51.038;7.216;2022-07-23T07:19:50;23.00;91.90
1129;DHT22;553;51.038;7.216;2022-07-23T07:22:16;23.20;89.10
1129;DHT22;553;51.038;7.216;2022-07-23T07:24:43;23.20;88.70
1129;DHT22;553;51.038;7.216;2022-07-23T07:27:10;23.30;86.20
1129;DHT22;553;51.038;7.216;2022-07-23T07:29:36;23.30;87.40
1129;DHT22;553;51.038;7.216;2022-07-23T07:32:03;23.20;86.80
1129;DHT22;553;51.038;7.216;2022-07-23T07:34:31;23.20;87.70
1129;DHT22;553;51.038;7.216;2022-07-23T07:36:57;23.20;87.80
1129;DHT22;553;51.038;7.216;2022-07-23T07:39:24;23.40;87.80
1129;DHT22;553;51.038;7.216;2022-07-23T07:41:51;23.50;86.70
1129;DHT22;553;51.038;7.216;2022-07-23T07:44:18;23.70;87.20
1129;DHT22;553;51.038;7.216;2022-07-23T07:46:45;23.80;87.00
1129;DHT22;553;51.038;7.216;2022-07-23T07:49:11;23.70;86.60
1129;DHT22;553;51.038;7.216;2022-07-23T07:51:41;23.80;87.40
1129;DHT22;553;51.038;7.216;2022-07-23T07:54:11;23.80;87.20
1129;DHT22;553;51.038;7.216;2022-07-23T07:56:38;23.80;86.60
1129;DHT22;553;51.038;7.216;2022-07-23T07:59:06;23.90;85.70
1129;DHT22;553;51.038;7.216;2022-07-23T08:01:33;23.90;84.50
1129;DHT22;553;51.038;7.216;2022-07-23T08:04:00;24.00;85.80
1129;DHT22;553;51.038;7.216;2022-07-23T08:06:27;23.80;85.50
1129;DHT22;553;51.038;7.216;2022-07-23T08:08:54;23.40;85.30
1129;DHT22;553;51.038;7.216;2022-07-23T08:11:21;23.70;86.80
1129;DHT22;553;51.038;7.216;2022-07-23T08:13:48;23.70;85.20
1129;DHT22;553;51.038;7.216;2022-07-23T08:16:14;23.80;85.00
1129;DHT22;553;51.038;7.216;2022-07-23T08:18:41;23.90;85.30
1129;DHT22;553;51.038;7.216;2022-07-23T08:21:08;24.30;85.10
1129;DHT22;553;51.038;7.216;2022-07-23T08:23:35;24.40;83.50
1129;DHT22;553;51.038;7.216;2022-07-23T08:26:02;24.60;84.60
1129;DHT22;553;51.038;7.216;2022-07-23T08:28:28;24.70;84.40
1129;DHT22;553;51.038;7.216;2022-07-23T08:30:55;24.50;83.40
1129;DHT22;553;51.038;7.216;2022-07-23T08:33:22;24.50;85.10
1129;DHT22;553;51.038;7.216;2022-07-23T08:36:01;24.50;86.80
1129;DHT22;553;51.038;7.216;2022-07-23T08:38:29;24.40;86.50
1129;DHT22;553;51.038;7.216;2022-07-23T08:40:57;24.60;85.30
1129;DHT22;553;51.038;7.216;2022-07-23T08:43:30;24.60;83.80
1129;DHT22;553;51.038;7.216;2022-07-23T08:45:58;24.50;85.30
1129;DHT22;553;51.038;7.216;2022-07-23T08:48:29;24.40;86.20
1129;DHT22;553;51.038;7.216;2022-07-23T08:50:58;24.70;84.70
1129;DHT22;553;51.038;7.216;2022-07-23T08:53:28;24.40;84.00
1129;DHT22;553;51.038;7.216;2022-07-23T08:55:58;24.70;84.00
1129;DHT22;553;51.038;7.216;2022-07-23T08:58:25;25.00;83.40
1129;DHT22;553;51.038;7.216;2022-07-23T09:00:54;25.10;82.70
1129;DHT22;553;51.038;7.216;2022-07-23T09:03:29;25.00;82.80
1129;DHT22;553;51.038;7.216;2022-07-23T09:05:57;24.70;83.60
1129;DHT22;553;51.038;7.216;2022-07-23T09:08:33;25.00;82.00
1129;DHT22;553;51.038;7.216;2022-07-23T09:11:02;25.00;82.40
1129;DHT22;553;51.038;7.216;2022-07-23T09:16:06;25.40;80.80
1129;DHT22;553;51.038;7.216;2022-07-23T09:18:34;25.40;80.00
1129;DHT22;553;51.038;7.216;2022-07-23T09:26:22;25.00;79.80
1129;DHT22;553;51.038;7.216;2022-07-23T09:31:27;24.90;80.40
1129;DHT22;553;51.038;7.216;2022-07-23T09:34:08;24.80;81.10
1129;DHT22;553;51.038;7.216;2022-07-23T09:36:35;24.60;82.00
1129;DHT22;553;51.038;7.216;2022-07-23T09:39:02;24.60;82.80
1129;DHT22;553;51.038;7.216;2022-07-23T09:41:38;24.90;83.20
1129;DHT22;553;51.038;7.216;2022-07-23T09:44:23;25.10;79.50
1129;DHT22;553;51.038;7.216;2022-07-23T09:46:58;25.30;77.80
1129;DHT22;553;51.038;7.216;2022-07-23T09:49:25;25.40;79.40
1129;DHT22;553;51.038;7.216;2022-07-23T09:51:55;25.50;79.20
1129;DHT22;553;51.038;7.216;2022-07-23T09:54:37;25.50;78.40
1129;DHT22;553;51.038;7.216;2022-07-23T09:57:12;25.30;81.00
1129;DHT22;553;51.038;7.216;2022-07-23T09:59:44;25.40;80.60
1129;DHT22;553;51.038;7.216;2022-07-23T10:02:13;25.40;79.60
1129;DHT22;553;51.038;7.216;2022-07-23T10:05:04;25.70;80.60
1129;DHT22;553;51.038;7.216;2022-07-23T10:08:02;25.80;78.30
1129;DHT22;553;51.038;7.216;2022-07-23T10:10:50;25.80;78.50
1129;DHT22;553;51.038;7.216;2022-07-23T10:13:36;25.70;79.80
1129;DHT22;553;51.038;7.216;2022-07-23T10:16:37;25.70;78.40
1129;DHT22;553;51.038;7.216;2022-07-23T10:19:05;25.60;79.10
1129;DHT22;553;51.038;7.216;2022-07-23T10:21:46;25.80;79.50
1129;DHT22;553;51.038;7.216;2022-07-23T10:29:47;25.00;78.80
1129;DHT22;553;51.038;7.216;2022-07-23T10:37:47;25.40;79.80
1129;DHT22;553;51.038;7.216;2022-07-23T10:40:20;25.50;79.70
1129;DHT22;553;51.038;7.216;2022-07-23T10:42:49;25.50;77.50
1129;DHT22;553;51.038;7.216;2022-07-23T10:48:18;25.40;77.60
1129;DHT22;553;51.038;7.216;2022-07-23T10:51:08;25.50;77.40
1129;DHT22;553;51.038;7.216;2022-07-23T10:53:54;25.40;76.60
1129;DHT22;553;51.038;7.216;2022-07-23T10:59:23;25.20;77.50
1129;DHT22;553;51.038;7.216;2022-07-23T11:01:50;25.40;77.10
1129;DHT22;553;51.038;7.216;2022-07-23T11:04:17;25.60;77.40
1129;DHT22;553;51.038;7.216;2022-07-23T11:17:25;25.80;75.00
1129;DHT22;553;51.038;7.216;2022-07-23T11:20:19;25.80;75.50
1129;DHT22;553;51.038;7.216;2022-07-23T11:22:49;25.70;75.00
1129;DHT22;553;51.038;7.216;2022-07-23T11:27:51;25.60;72.90
1129;DHT22;553;51.038;7.216;2022-07-23T11:35:37;25.60;74.00
1129;DHT22;553;51.038;7.216;2022-07-23T11:38:19;25.80;73.60
1129;DHT22;553;51.038;7.216;2022-07-23T11:40:54;25.90;74.60
1129;DHT22;553;51.038;7.216;2022-07-23T11:43:23;25.90;74.40
1129;DHT22;553;51.038;7.216;2022-07-23T11:45:57;25.90;74.40
1129;DHT22;553;51.038;7.216;2022-07-23T11:48:29;25.90;74.10
1129;DHT22;553;51.038;7.216;2022-07-23T11:50:57;25.50;74.00
1129;DHT22;553;51.038;7.216;2022-07-23T11:53:32;25.40;75.50
1129;DHT22;553;51.038;7.216;2022-07-23T11:56:10;25.50;73.60
1129;DHT22;553;51.038;7.216;2022-07-23T11:58:38;25.80;72.50
1129;DHT22;553;51.038;7.216;2022-07-23T12:01:05;25.90;72.00
1129;DHT22;553;51.038;7.216;2022-07-23T12:03:49;26.00;73.00
1129;DHT22;553;51.038;7.216;2022-07-23T12:06:16;26.20;73.20
1129;DHT22;553;51.038;7.216;2022-07-23T12:08:43;26.30;70.80
1129;DHT22;553;51.038;7.216;2022-07-23T12:11:12;26.20;70.90
1129;DHT22;553;51.038;7.216;2022-07-23T12:13:39;26.30;72.90
1129;DHT22;553;51.038;7.216;2022-07-23T12:16:06;26.10;71.90
1129;DHT22;553;51.038;7.216;2022-07-23T12:18:34;26.20;72.30
1129;DHT22;553;51.038;7.216;2022-07-23T12:21:04;26.30;72.20
1129;DHT22;553;51.038;7.216;2022-07-23T12:23:31;26.50;71.20
1129;DHT22;553;51.038;7.216;2022-07-23T12:26:01;26.50;71.60
1129;DHT22;553;51.038;7.216;2022-07-23T12:28:30;26.60;69.90
1129;DHT22;553;51.038;7.216;2022-07-23T12:30:59;26.50;71.20
1129;DHT22;553;51.038;7.216;2022-07-23T12:33:38;26.50;70.30
1129;DHT22;553;51.038;7.216;2022-07-23T12:36:07;26.70;69.40
1129;DHT22;553;51.038;7.216;2022-07-23T12:41:05;26.70;68.10
1129;DHT22;553;51.038;7.216;2022-07-23T12:43:36;26.60;70.40
1129;DHT22;553;51.038;7.216;2022-07-23T12:46:09;26.50;69.30
1129;DHT22;553;51.038;7.216;2022-07-23T12:48:38;26.50;71.80
1129;DHT22;553;51.038;7.216;2022-07-23T12:51:16;26.40;72.00
1129;DHT22;553;51.038;7.216;2022-07-23T12:53:55;26.50;72.40
1129;DHT22;553;51.038;7.216;2022-07-23T12:56:34;26.70;70.70
1129;DHT22;553;51.038;7.216;2022-07-23T12:59:07;26.70;71.20
1129;DHT22;553;51.038;7.216;2022-07-23T13:01:36;26.70;69.40
1129;DHT22;553;51.038;7.216;2022-07-23T13:06:45;26.80;69.40
1129;DHT22;553;51.038;7.216;2022-07-23T13:09:14;26.80;68.00
1129;DHT22;553;51.038;7.216;2022-07-23T13:11:43;26.90;69.20
1129;DHT22;553;51.038;7.216;2022-07-23T13:14:14;26.90;69.00
1129;DHT22;553;51.038;7.216;2022-07-23T13:16:41;27.00;69.50
1129;DHT22;553;51.038;7.216;2022-07-23T13:19:08;26.90;68.60
1129;DHT22;553;51.038;7.216;2022-07-23T13:21:39;26.80;69.00
1129;DHT22;553;51.038;7.216;2022-07-23T13:24:07;26.80;68.80
1129;DHT22;553;51.038;7.216;2022-07-23T13:26:35;26.80;70.30
1129;DHT22;553;51.038;7.216;2022-07-23T13:29:04;26.80;69.40
1129;DHT22;553;51.038;7.216;2022-07-23T13:31:36;26.80;70.00
1129;DHT22;553;51.038;7.216;2022-07-23T13:34:05;26.90;69.60
1129;DHT22;553;51.038;7.216;2022-07-23T13:36:36;26.90;70.10
1129;DHT22;553;51.038;7.216;2022-07-23T13:39:04;26.90;69.90
1129;DHT22;553;51.038;7.216;2022-07-23T13:41:33;26.90;70.10
1129;DHT22;553;51.038;7.216;2022-07-23T13:44:02;26.90;70.70
1129;DHT22;553;51.038;7.216;2022-07-23T13:46:28;26.90;70.90
1129;DHT22;553;51.038;7.216;2022-07-23T13:48:55;27.00;69.20
1129;DHT22;553;51.038;7.216;2022-07-23T13:51:22;27.00;69.50
1129;DHT22;553;51.038;7.216;2022-07-23T13:53:51;27.10;69.70
1129;DHT22;553;51.038;7.216;2022-07-23T13:56:19;27.00;68.00
1129;DHT22;553;51.038;7.216;2022-07-23T13:58:47;26.80;68.80
1129;DHT22;553;51.038;7.216;2022-07-23T14:01:14;26.80;69.10
1129;DHT22;553;51.038;7.216;2022-07-23T14:03:43;26.80;70.20
1129;DHT22;553;51.038;7.216;2022-07-23T14:06:11;26.80;69.70
1129;DHT22;553;51.038;7.216;2022-07-23T14:08:58;26.60;69.40
1129;DHT22;553;51.038;7.216;2022-07-23T14:11:24;26.50;70.60
1129;DHT22;553;51.038;7.216;2022-07-23T14:13:55;26.50;70.20
1129;DHT22;553;51.038;7.216;2022-07-23T14:16:22;26.50;71.90
1129;DHT22;553;51.038;7.216;2022-07-23T14:18:49;26.70;70.00
1129;DHT22;553;51.038;7.216;2022-07-23T14:21:16;26.60;69.80
1129;DHT22;553;51.038;7.216;2022-07-23T14:23:43;26.60;70.70
1129;DHT22;553;51.038;7.216;2022-07-23T14:26:10;26.60;70.40
1129;DHT22;553;51.038;7.216;2022-07-23T14:28:36;26.60;70.00
1129;DHT22;553;51.038;7.216;2022-07-23T14:31:06;26.70;70.30
1129;DHT22;553;51.038;7.216;2022-07-23T14:33:46;26.50;69.30
1129;DHT22;553;51.038;7.216;2022-07-23T14:36:13;26.50;69.60
1129;DHT22;553;51.038;7.216;2022-07-23T14:38:42;26.50;70.60
1129;DHT22;553;51.038;7.216;2022-07-23T14:41:08;26.40;68.80
1129;DHT22;553;51.038;7.216;2022-07-23T14:43:37;26.50;69.10
1129;DHT22;553;51.038;7.216;2022-07-23T14:46:04;26.60;69.60
1129;DHT22;553;51.038;7.216;2022-07-23T14:48:31;26.70;69.20
1129;DHT22;553;51.038;7.216;2022-07-23T14:50:58;26.80;69.30
1129;DHT22;553;51.038;7.216;2022-07-23T14:53:25;26.80;68.70
1129;DHT22;553;51.038;7.216;2022-07-23T14:55:52;26.60;69.40
1129;DHT22;553;51.038;7.216;2022-07-23T14:58:21;26.50;69.60
1129;DHT22;553;51.038;7.216;2022-07-23T15:00:47;26.50;69.80
1129;DHT22;553;51.038;7.216;2022-07-23T15:03:15;26.70;70.40
1129;DHT22;553;51.038;7.216;2022-07-23T15:05:42;26.70;69.70
1129;DHT22;553;51.038;7.216;2022-07-23T15:08:09;26.80;69.70
1129;DHT22;553;51.038;7.216;2022-07-23T15:10:36;26.80;68.50
1129;DHT22;553;51.038;7.216;2022-07-23T15:13:05;26.80;69.40
1129;DHT22;553;51.038;7.216;2022-07-23T15:15:34;26.90;68.70
1129;DHT22;553;51.038;7.216;2022-07-23T15:18:00;26.90;68.80
1129;DHT22;553;51.038;7.216;2022-07-23T15:20:27;26.80;69.10
1129;DHT22;553;51.038;7.216;2022-07-23T15:23:04;26.70;69.30
1129;DHT22;553;51.038;7.216;2022-07-23T15:25:34;26.80;68.80
1129;DHT22;553;51.038;7.216;2022-07-23T15:28:02;26.80;68.20
1129;DHT22;553;51.038;7.216;2022-07-23T15:30:29;26.70;68.50
1129;DHT22;553;51.038;7.216;2022-07-23T15:32:55;26.70;69.50
1129;DHT22;553;51.038;7.216;2022-07-23T15:35:24;26.70;68.80
1129;DHT22;553;51.038;7.216;2022-07-23T15:37:51;26.60;69.20
1129;DHT22;553;51.038;7.216;2022-07-23T15:40:18;26.60;69.90
1129;DHT22;553;51.038;7.216;2022-07-23T15:42:44;26.80;68.70
1129;DHT22;553;51.038;7.216;2022-07-23T15:45:11;26.80;69.10
1129;DHT22;553;51.038;7.216;2022-07-23T15:47:41;26.80;68.50
1129;DHT22;553;51.038;7.216;2022-07-23T15:50:09;26.80;67.50
1129;DHT22;553;51.038;7.216;2022-07-23T15:52:36;26.80;67.30
1129;DHT22;553;51.038;7.216;2022-07-23T15:55:05;26.80;67.50
1129;DHT22;553;51.038;7.216;2022-07-23T15:57:42;26.80;68.80
1129;DHT22;553;51.038;7.216;2022-07-23T16:00:11;26.80;68.80
1129;DHT22;553;51.038;7.216;2022-07-23T16:02:38;26.70;68.40
1129;DHT22;553;51.038;7.216;2022-07-23T16:05:05;26.70;68.30
1129;DHT22;553;51.038;7.216;2022-07-23T16:07:32;26.70;67.80
1129;DHT22;553;51.038;7.216;2022-07-23T16:10:05;26.80;67.10
1129;DHT22;553;51.038;7.216;2022-07-23T16:12:31;26.80;68.00
1129;DHT22;553;51.038;7.216;2022-07-23T16:14:58;26.90;67.60
1129;DHT22;553;51.038;7.216;2022-07-23T16:17:32;26.80;67.40
1129;DHT22;553;51.038;7.216;2022-07-23T16:19:59;26.80;68.30
1129;DHT22;553;51.038;7.216;2022-07-23T16:22:25;26.90;67.70
1129;DHT22;553;51.038;7.216;2022-07-23T16:24:52;26.90;68.00
1129;DHT22;553;51.038;7.216;2022-07-23T16:27:19;26.70;68.60
1129;DHT22;553;51.038;7.216;2022-07-23T16:29:46;26.60;68.20
1129;DHT22;553;51.038;7.216;2022-07-23T16:32:12;26.80;68.80
1129;DHT22;553;51.038;7.216;2022-07-23T16:34:39;26.90;68.90
1129;DHT22;553;51.038;7.216;2022-07-23T16:37:08;26.90;69.50
1129;DHT22;553;51.038;7.216;2022-07-23T16:39:36;27.00;67.70
1129;DHT22;553;51.038;7.216;2022-07-23T16:42:03;26.90;68.00
1129;DHT22;553;51.038;7.216;2022-07-23T16:44:30;26.90;67.70
1129;DHT22;553;51.038;7.216;2022-07-23T16:46:57;26.80;67.00
1129;DHT22;553;51.038;7.216;2022-07-23T16:49:24;26.70;68.00
1129;DHT22;553;51.038;7.216;2022-07-23T16:51:51;26.60;67.70
1129;DHT22;553;51.038;7.216;2022-07-23T16:54:18;26.60;68.00
1129;DHT22;553;51.038;7.216;2022-07-23T16:56:47;26.60;67.60
1129;DHT22;553;51.038;7.216;2022-07-23T16:59:14;26.60;68.10
1129;DHT22;553;51.038;7.216;2022-07-23T17:01:41;26.50;68.20
1129;DHT22;553;51.038;7.216;2022-07-23T17:04:08;26.50;69.40
1129;DHT22;553;51.038;7.216;2022-07-23T17:06:35;26.40;69.10
1129;DHT22;553;51.038;7.216;2022-07-23T17:09:03;26.40;69.10
1129;DHT22;553;51.038;7.216;2022-07-23T17:11:33;26.30;69.90
1129;DHT22;553;51.038;7.216;2022-07-23T17:13:59;26.40;69.60
1129;DHT22;553;51.038;7.216;2022-07-23T17:16:26;26.40;69.00
1129;DHT22;553;51.038;7.216;2022-07-23T17:18:53;26.30;69.10